DEFOG EDLW-ZZZ

Flight info

Callsign DEFOG
Flight time N/A
Altitude
Route
Aircraft

Departure

Time 2026-04-29 15:27
Airport Dortmund Airport (EDLW)

Arrival

Time N/A
Airport ZZZ
Time Latitude Longitude Altitude Speed Heading
2026-04-29 15:22 51.51199 7.60400 459 ft 0 kts 196°
2026-04-29 15:23 51.51185 7.60376 460 ft 0 kts 251°
2026-04-29 15:23 51.51182 7.60274 455 ft 9 kts 228°
2026-04-29 15:23 51.51157 7.60172 456 ft 8 kts 317°
2026-04-29 15:24 51.51209 7.60198 448 ft 5 kts 61°
2026-04-29 15:24 51.51253 7.60326 444 ft 17 kts 62°
2026-04-29 15:24 51.51334 7.60554 436 ft 20 kts 60°
2026-04-29 15:24 51.51400 7.60742 436 ft 19 kts 60°
2026-04-29 15:25 51.51466 7.60930 426 ft 18 kts 61°
2026-04-29 15:25 51.51534 7.61062 429 ft 8 kts 354°
2026-04-29 15:25 51.51570 7.60964 424 ft 11 kts 253°
2026-04-29 15:25 51.51560 7.60906 423 ft 12 kts 254°
2026-04-29 15:26 51.51546 7.60823 421 ft 9 kts 254°
2026-04-29 15:26 51.51527 7.60705 418 ft 7 kts 266°
2026-04-29 15:26 51.51531 7.60666 417 ft 10 kts 290°
2026-04-29 15:26 51.51609 7.60597 417 ft 9 kts 39°
2026-04-29 15:27 51.51817 7.61196 450 ft 114 kts 62°
2026-04-29 15:27 51.52269 7.62554 790 ft 162 kts 63°
2026-04-29 15:27 51.52798 7.64288 1064 ft 164 kts 64°
2026-04-29 15:27 51.53185 7.65839 1268 ft 146 kts 69°
2026-04-29 15:28 51.53583 7.67306 1228 ft 145 kts 70°
2026-04-29 15:28 51.53835 7.68282 1320 ft 141 kts 69°
2026-04-29 15:28 51.54889 7.69355 1382 ft 160 kts 357°
2026-04-29 15:28 51.55731 7.68136 1554 ft 176 kts 297°
2026-04-29 15:29 51.55719 7.66146 1691 ft 191 kts 246°
2026-04-29 15:29 51.54725 7.62348 1745 ft 197 kts 246°
2026-04-29 15:30 51.52793 7.60870 1904 ft 160 kts 152°
2026-04-29 15:30 51.51766 7.61620 1861 ft 165 kts 149°
2026-04-29 15:30 51.50722 7.62369 1896 ft 164 kts 150°
2026-04-29 15:30 51.49608 7.62658 1957 ft 174 kts 196°
2026-04-29 15:31 51.48801 7.61122 1855 ft 191 kts 243°
2026-04-29 15:31 51.48239 7.59234 1819 ft 186 kts 246°
2026-04-29 15:31 51.47692 7.57246 1877 ft 208 kts 247°
2026-04-29 15:31 51.47252 7.55143 1988 ft 192 kts 271°
2026-04-29 15:32 51.47709 7.53336 1911 ft 175 kts 333°
2026-04-29 15:32 51.48793 7.53145 1816 ft 158 kts 32°
2026-04-29 15:32 51.49490 7.54424 1756 ft 158 kts 63°
2026-04-29 15:32 51.49991 7.55977 1716 ft 158 kts 65°
2026-04-29 15:33 51.50502 7.57609 1547 ft 171 kts 66°
2026-04-29 15:33 51.51034 7.59353 1347 ft 190 kts 64°
2026-04-29 15:33 51.51622 7.61185 1329 ft 184 kts 65°
2026-04-29 15:33 51.52223 7.63119 1307 ft 201 kts 66°
2026-04-29 15:34 51.52817 7.65147 1419 ft 200 kts 67°
2026-04-29 15:34 51.53598 7.66681 1530 ft 167 kts 28°
2026-04-29 15:34 51.54702 7.66450 1627 ft 172 kts 322°
2026-04-29 15:34 51.54768 7.64737 1882 ft 164 kts 219°
2026-04-29 15:35 51.53757 7.64595 1921 ft 150 kts 137°
2026-04-29 15:35 51.52851 7.65411 2047 ft 156 kts 159°
2026-04-29 15:35 51.51821 7.65930 2128 ft 161 kts 164°
2026-04-29 15:35 51.50697 7.66285 2336 ft 173 kts 162°
2026-04-29 15:36 51.49641 7.66898 2433 ft 160 kts 149°
2026-04-29 15:36 51.48651 7.67720 2429 ft 160 kts 147°
2026-04-29 15:36 51.47614 7.68660 2824 ft 175 kts 143°
2026-04-29 15:36 51.46534 7.69627 3624 ft 171 kts 146°
2026-04-29 15:37 51.45466 7.70484 4351 ft 181 kts 150°